createdAt,value
2023-05-18T00:02:58.412Z,100636.66
2023-05-18T00:06:07.472Z,100652.44
2023-05-18T00:09:12.925Z,100621.88
2023-05-18T00:12:15.496Z,100635.44
2023-05-18T00:15:22.293Z,100661.28
2023-05-18T00:18:34.473Z,100621.09
2023-05-18T00:21:41.031Z,100658.59
2023-05-18T00:24:44.306Z,100637.84
2023-05-18T00:27:51.831Z,100658.44
2023-05-18T00:30:57.016Z,100666.66
2023-05-18T00:33:59.819Z,100662.22
2023-05-18T00:37:02.001Z,100659.41
2023-05-18T00:40:06.875Z,100636.03
2023-05-18T00:43:10.279Z,100647.34
2023-05-18T00:46:15.325Z,100641.13
2023-05-18T00:49:17.982Z,100628.72
2023-05-18T00:52:21.904Z,100663.53
2023-05-18T00:55:24.920Z,100652.78
2023-05-18T00:58:27.275Z,100627.41
2023-05-18T01:01:31.868Z,100656.38
2023-05-18T01:04:34.268Z,100645.44
2023-05-18T01:07:42.902Z,100654.31
2023-05-18T01:10:52.855Z,100676.91
2023-05-18T01:14:09.018Z,100668.53
2023-05-18T01:17:25.017Z,100647.59
2023-05-18T01:20:51.210Z,100654.31
2023-05-18T01:24:10.829Z,100651.91
2023-05-18T01:27:18.318Z,100673.50
2023-05-18T01:30:24.153Z,100672.72
2023-05-18T01:33:29.270Z,100672.75
2023-05-18T01:36:33.413Z,100657.00
2023-05-18T01:39:35.904Z,100697.78
2023-05-18T01:42:45.535Z,100680.13
2023-05-18T01:45:53.162Z,100681.28
2023-05-18T01:49:00.842Z,100711.09
2023-05-18T01:52:20.797Z,100682.78
2023-05-18T01:55:24.359Z,100686.22
2023-05-18T01:58:28.978Z,100705.22
2023-05-18T02:01:31.683Z,100691.16
2023-05-18T02:04:35.463Z,100690.66
2023-05-18T02:07:37.941Z,100709.00
2023-05-18T02:10:40.406Z,100717.22
2023-05-18T02:13:45.969Z,100682.13
2023-05-18T02:16:55.796Z,100724.75
2023-05-18T02:20:03.130Z,100712.47
2023-05-18T02:23:08.353Z,100714.28
2023-05-18T02:26:13.312Z,100714.09
2023-05-18T02:29:22.318Z,100743.47
2023-05-18T02:32:38.934Z,100741.16
2023-05-18T02:35:50.105Z,100724.78
2023-05-18T02:39:00.270Z,100743.81
2023-05-18T02:42:04.856Z,100741.19
2023-05-18T02:45:08.614Z,100742.16
2023-05-18T02:48:13.744Z,100705.47
2023-05-18T02:51:17.046Z,100742.97
2023-05-18T02:54:30.030Z,100700.38
2023-05-18T02:57:38.138Z,100703.34
2023-05-18T03:00:44.724Z,100734.78
2023-05-18T03:04:06.757Z,100731.00
2023-05-18T03:07:15.116Z,100707.63
2023-05-18T03:10:22.977Z,100748.56
2023-05-18T03:13:39.465Z,100709.75
2023-05-18T03:16:56.749Z,100736.75
2023-05-18T03:20:17.575Z,100732.69
2023-05-18T03:23:21.567Z,100745.94
2023-05-18T03:26:27.386Z,100730.22
2023-05-18T03:29:31.663Z,100717.78
2023-05-18T03:32:43.183Z,100717.31
2023-05-18T03:35:56.943Z,100715.81
2023-05-18T03:39:09.659Z,100750.19
2023-05-18T03:42:15.452Z,100768.75
2023-05-18T03:45:27.239Z,100757.94
2023-05-18T03:48:30.426Z,100765.47
2023-05-18T03:51:46.734Z,100740.59
2023-05-18T03:55:04.236Z,100756.47
2023-05-18T03:58:20.861Z,100737.47
2023-05-18T04:01:26.100Z,100750.56
2023-05-18T04:04:31.250Z,100766.78
2023-05-18T04:07:45.453Z,100761.91
2023-05-18T04:11:03.636Z,100770.75
2023-05-18T04:14:11.401Z,100784.16
2023-05-18T04:17:20.023Z,100763.03
2023-05-18T04:20:23.729Z,100755.19
2023-05-18T04:23:39.524Z,100786.16
2023-05-18T04:26:48.085Z,100791.25
2023-05-18T04:29:57.796Z,100785.00
2023-05-18T04:33:17.185Z,100796.47
2023-05-18T04:36:30.897Z,100797.78
2023-05-18T04:39:40.119Z,100780.22
2023-05-18T04:42:54.408Z,100757.44
2023-05-18T04:45:58.260Z,100785.97
2023-05-18T04:49:01.363Z,100783.00
2023-05-18T04:52:06.907Z,100792.22
2023-05-18T04:55:10.975Z,100772.84
2023-05-18T04:58:13.542Z,100805.63
2023-05-18T05:01:17.163Z,100790.69
2023-05-18T05:04:21.015Z,100799.56
2023-05-18T05:07:22.968Z,100805.31
2023-05-18T05:10:25.240Z,100815.78
2023-05-18T05:13:28.054Z,100778.59
2023-05-18T05:16:32.599Z,100794.81
2023-05-18T05:19:35.047Z,100818.72
2023-05-18T05:22:37.484Z,100820.88
2023-05-18T05:25:47.145Z,100794.81
2023-05-18T05:28:49.681Z,100796.78
2023-05-18T05:32:01.346Z,100814.34
2023-05-18T05:39:50.489Z,100826.75
2023-05-18T05:41:46.459Z,100821.69
2023-05-18T05:43:24.684Z,100812.03
2023-05-18T05:47:18.605Z,100827.47
2023-05-18T09:18:43.221Z,100918.25
2023-05-18T09:23:10.064Z,100952.38
2023-05-18T09:26:48.444Z,100952.44
2023-05-18T09:29:59.680Z,100907.94
2023-05-18T09:33:22.677Z,100950.63
2023-05-18T09:36:47.902Z,100928.66
2023-05-18T09:40:03.725Z,100963.41
2023-05-18T09:43:22.001Z,100961.44
2023-05-18T09:47:05.822Z,100921.06
2023-05-18T10:00:49.036Z,100944.78
2023-05-18T10:08:56.200Z,100956.44
2023-05-18T10:24:53.165Z,100919.66
2023-05-18T10:28:27.088Z,100958.47
2023-05-18T10:32:11.059Z,100958.97
2023-05-18T10:35:30.851Z,100944.50
2023-05-18T10:38:41.878Z,100926.34
2023-05-18T10:46:08.669Z,100944.91
2023-05-18T10:49:23.881Z,100957.56
2023-05-18T10:52:37.154Z,100968.31
2023-05-18T10:55:57.265Z,100936.25
2023-05-18T10:59:49.657Z,100961.13
2023-05-18T11:03:42.469Z,100927.16
2023-05-18T11:07:05.778Z,100956.97
2023-05-18T11:10:26.860Z,100917.59
2023-05-18T11:13:32.396Z,100965.97
2023-05-18T11:16:37.722Z,100969.97
2023-05-18T11:19:41.552Z,100961.16
2023-05-18T11:22:52.960Z,100972.25
2023-05-18T11:31:08.358Z,100954.31
2023-05-18T11:34:42.588Z,100978.47
2023-05-18T11:37:49.001Z,100964.06
2023-05-18T11:40:51.579Z,100983.09
2023-05-18T11:44:42.358Z,100948.53
2023-05-18T11:53:03.085Z,100987.63
2023-05-18T11:56:13.221Z,100994.34
2023-05-18T11:59:18.796Z,100986.50
2023-05-18T12:02:37.456Z,100992.16
2023-05-18T12:05:44.000Z,100969.97
2023-05-18T12:08:51.760Z,100990.75
2023-05-18T12:15:38.729Z,100993.25
2023-05-18T12:19:42.412Z,100990.22
2023-05-18T12:23:57.786Z,100998.88
2023-05-18T12:28:24.884Z,100977.63
2023-05-18T12:31:47.748Z,100995.94
2023-05-18T12:35:14.363Z,100995.25
2023-05-18T12:38:51.208Z,100942.28
2023-05-18T12:42:16.811Z,100971.78
2023-05-18T12:45:53.958Z,100993.91
2023-05-18T12:49:19.637Z,100973.13
2023-05-18T12:52:22.993Z,100992.66
2023-05-18T12:55:34.019Z,100984.50
2023-05-18T12:58:41.292Z,100985.88
2023-05-18T13:20:37.683Z,100991.78
2023-05-18T13:24:24.472Z,100986.50
2023-05-18T13:32:31.128Z,100996.13
2023-05-18T13:36:13.433Z,100996.31
2023-05-18T13:40:13.186Z,101002.41
2023-05-18T13:48:17.477Z,100967.09
2023-05-18T13:52:04.213Z,100965.03
2023-05-18T14:00:16.438Z,100993.03
2023-05-18T14:04:23.980Z,100962.69
2023-05-18T14:08:16.173Z,100977.03
2023-05-18T14:11:46.506Z,101003.69
2023-05-18T14:15:03.506Z,100970.75
2023-05-18T14:18:16.094Z,100990.41
2023-05-18T14:25:51.850Z,101010.31
2023-05-18T14:30:01.387Z,100968.94
2023-05-18T14:33:11.314Z,101015.97
2023-05-18T14:36:21.912Z,101008.78
2023-05-18T14:40:03.272Z,100967.75
2023-05-18T14:43:41.851Z,100976.03
2023-05-18T14:47:23.396Z,101008.69
2023-05-18T14:50:56.567Z,100970.59
2023-05-18T14:54:34.328Z,100989.00
2023-05-18T15:03:14.316Z,101022.03
2023-05-18T15:11:10.060Z,101019.69
2023-05-18T15:15:12.962Z,100978.25
2023-05-18T15:45:21.701Z,101002.41
2023-05-18T15:50:16.940Z,101003.13
2023-05-18T16:48:39.760Z,101038.47
2023-05-18T16:56:35.090Z,101046.38
2023-05-18T17:00:30.414Z,101028.69
2023-05-18T17:08:05.008Z,101025.47
2023-05-18T17:09:14.586Z,101008.50
2023-05-18T17:31:15.637Z,101058.44
2023-05-18T17:35:48.123Z,101043.84
2023-05-18T17:40:29.886Z,101028.56
2023-05-18T17:43:37.121Z,101030.78
2023-05-18T17:54:35.883Z,101047.47
2023-05-18T17:58:00.321Z,101049.47
2023-05-18T18:01:21.015Z,101044.25
2023-05-18T18:04:54.572Z,101063.28
2023-05-18T18:12:47.860Z,101059.94
2023-05-18T18:16:19.422Z,101054.47
2023-05-18T18:19:48.752Z,101049.75
2023-05-18T18:23:22.938Z,101087.63
2023-05-18T18:30:40.247Z,101106.63
2023-05-18T18:34:24.333Z,101108.72
2023-05-18T18:38:02.700Z,101106.97
2023-05-18T18:45:36.454Z,101104.50
2023-05-18T18:49:16.785Z,101105.94
2023-05-18T18:56:16.147Z,101076.16
2023-05-18T18:59:42.038Z,101112.94
2023-05-18T19:03:01.823Z,101075.84
2023-05-18T19:06:56.646Z,101115.38
2023-05-18T19:10:36.869Z,101125.78
2023-05-18T19:15:07.336Z,101127.41
2023-05-18T19:18:59.463Z,101102.13
2023-05-18T19:23:07.801Z,101143.88
2023-05-18T19:31:45.954Z,101150.63
2023-05-18T19:41:18.887Z,101153.56
2023-05-18T19:44:50.287Z,101111.53
2023-05-18T19:49:19.938Z,101145.03
2023-05-18T19:57:18.446Z,101175.47
2023-05-18T20:01:10.335Z,101175.63
2023-05-18T20:05:20.749Z,101185.50
2023-05-18T20:09:32.687Z,101186.63
2023-05-18T20:13:33.066Z,101187.09
2023-05-18T20:17:05.051Z,101195.69
2023-05-18T20:20:59.763Z,101178.63
2023-05-18T20:24:46.137Z,101176.31
2023-05-18T20:28:25.917Z,101197.84
2023-05-18T20:31:53.576Z,101205.41
2023-05-18T20:36:15.739Z,101151.81
2023-05-18T20:40:15.187Z,101188.13
2023-05-18T21:24:47.722Z,101206.50
2023-05-18T21:28:05.624Z,101195.22
2023-05-18T21:31:18.108Z,101213.41
2023-05-18T21:34:24.058Z,101218.34
2023-05-18T21:37:34.420Z,101189.75
2023-05-18T21:41:02.347Z,101197.22
2023-05-18T21:44:12.069Z,101205.16
2023-05-18T21:48:09.627Z,101224.69
2023-05-18T21:51:28.648Z,101211.03
2023-05-18T21:58:10.510Z,101189.56
2023-05-18T22:01:19.949Z,101220.44
2023-05-18T22:04:32.777Z,101231.13
2023-05-18T22:07:36.526Z,101206.66
2023-05-18T22:10:43.072Z,101210.59
2023-05-18T22:13:47.461Z,101221.44
2023-05-18T22:16:51.601Z,101210.78
2023-05-18T22:19:58.426Z,101225.41
2023-05-18T22:23:06.506Z,101214.41
2023-05-18T22:26:13.992Z,101218.34
2023-05-18T22:29:20.571Z,101233.13
2023-05-18T22:32:24.788Z,101231.78
2023-05-18T22:35:28.634Z,101235.41
2023-05-18T22:38:36.000Z,101225.41
2023-05-18T22:41:50.131Z,101227.34
2023-05-18T22:44:53.003Z,101201.84
2023-05-18T22:47:57.764Z,101214.19
2023-05-18T22:51:07.243Z,101221.41
2023-05-18T22:54:13.376Z,101219.78
2023-05-18T22:57:29.348Z,101208.13
2023-05-18T23:00:33.329Z,101227.69
2023-05-18T23:03:39.834Z,101220.75
2023-05-18T23:06:43.177Z,101220.28
2023-05-18T23:09:51.374Z,101220.44
2023-05-18T23:12:58.956Z,101216.31
2023-05-18T23:16:22.717Z,101222.56
2023-05-18T23:19:29.693Z,101217.97
2023-05-18T23:22:37.878Z,101223.31
2023-05-18T23:25:51.705Z,101223.16
2023-05-18T23:28:57.625Z,101202.94
2023-05-18T23:32:01.659Z,101235.19
2023-05-18T23:35:13.895Z,101227.31
2023-05-18T23:38:29.578Z,101233.53
2023-05-18T23:41:40.201Z,101233.06
2023-05-18T23:44:49.627Z,101241.97
2023-05-18T23:47:56.501Z,101241.81
2023-05-18T23:51:09.581Z,101237.19
2023-05-18T23:54:17.395Z,101246.56
2023-05-18T23:57:21.569Z,101243.13
